This is the latest recevied weather packets stored in our database for station/object K1BES. If no packets are shown the sender has not sent any weather packets the latest 1 day(s).
| Time | Temp. | Humidity | Pressure | Rain* | Wind** | Luminosity | Snow |
|---|---|---|---|---|---|---|---|
| 1778085808 | 30° C | 71% | 1019.3 hPa | 0 mm | - | 932 W/m² | - |
| 1778085200 | 29.44° C | 74% | 1019.2 hPa | 0 mm | - | 1017 W/m² | - |
| 1778084594 | 30° C | 71% | 1019.2 hPa | 0 mm | - | 878 W/m² | - |
| 1778084291 | 30° C | 70% | 1019.4 hPa | 0 mm | - | 926 W/m² | - |
| 1778081044 | 30° C | 69% | 1019.2 hPa | 0 mm | - | 870 W/m² | - |
| 1778080743 | 30° C | 69% | 1019.1 hPa | 0 mm | - | 326 W/m² | - |
| 1778080439 | 30° C | 69% | 1019.2 hPa | 0 mm | - | 881 W/m² | - |
| 1778080137 | 30° C | 70% | 1019 hPa | 0 mm | - | 822 W/m² | - |
| 1778078620 | 28.89° C | 71% | 1019.2 hPa | 0 mm | - | 736 W/m² | - |
| 1778077411 | 29.44° C | 69% | 1018.7 hPa | 0 mm | - | 666 W/m² | - |
| 1778076505 | 29.44° C | 68% | 1018.8 hPa | 0 mm | - | 619 W/m² | - |
| 1778074988 | 28.89° C | 70% | 1018.6 hPa | 0 mm | - | 445 W/m² | - |
| 1778074685 | 28.89° C | 70% | 1018.6 hPa | 0 mm | - | 435 W/m² | - |
| 1778073474 | 27.78° C | 74% | 1018.7 hPa | 0 mm | - | 382 W/m² | - |
| 1778071959 | 26.11° C | 80% | 1018.7 hPa | 0 mm | - | 292 W/m² | - |
| 1778070144 | 23.89° C | 90% | 1018.3 hPa | 0 mm | - | 98 W/m² | - |
| 1778069236 | 22.78° C | 96% | 1018.2 hPa | 0 mm | - | 86 W/m² | - |
| 1778065303 | 20.56° C | 96% | 1017.6 hPa | 0 mm | - | 7 W/m² | - |
| 1778064999 | 20.56° C | 96% | 1017.5 hPa | 0 mm | - | 4 W/m² | - |
| 1778064696 | 20.56° C | 96% | 1017.6 hPa | 0 mm | - | 3 W/m² | - |
| 1778064092 | 20.56° C | 96% | 1017.6 hPa | 0 mm | - | 1 W/m² | - |
| 1778063789 | 20.56° C | 96% | 1017.5 hPa | 0 mm | - | 0 W/m² | - |
| 1778063184 | 20.56° C | 96% | 1017.3 hPa | 0 mm | - | 0 W/m² | - |
| 1778062881 | 20.56° C | 96% | 1017.4 hPa | 0 mm | - | 0 W/m² | - |
| 1778060763 | 20.56° C | 95% | 1017.6 hPa | 0 mm | - | 0 W/m² | - |
* Rain latest hour (hover to see other rain measurements)
** Current wind speed in m/s (hover to see current wind gust speed)